sensor_id;sensor_type;location;lat;lon;timestamp;P1;durP1;ratioP1;P2;durP2;ratioP2
85559;SDS011;76003;49.038;16.594;2024-02-26T00:00:15;12.32;;;6.75;;
85559;SDS011;76003;49.038;16.594;2024-02-26T00:02:56;9.50;;;5.60;;
85559;SDS011;76003;49.038;16.594;2024-02-26T00:05:22;7.88;;;4.70;;
85559;SDS011;76003;49.038;16.594;2024-02-26T00:08:08;8.45;;;6.07;;
85559;SDS011;76003;49.038;16.594;2024-02-26T00:10:48;9.88;;;5.82;;
85559;SDS011;76003;49.038;16.594;2024-02-26T00:13:29;9.95;;;4.95;;
85559;SDS011;76003;49.038;16.594;2024-02-26T00:16:10;10.45;;;6.13;;
85559;SDS011;76003;49.038;16.594;2024-02-26T00:18:50;9.82;;;6.38;;
85559;SDS011;76003;49.038;16.594;2024-02-26T00:21:31;12.40;;;6.40;;
85559;SDS011;76003;49.038;16.594;2024-02-26T00:24:11;11.93;;;6.47;;
85559;SDS011;76003;49.038;16.594;2024-02-26T00:26:37;14.63;;;6.80;;
85559;SDS011;76003;49.038;16.594;2024-02-26T00:29:23;16.17;;;8.02;;
85559;SDS011;76003;49.038;16.594;2024-02-26T00:31:50;9.20;;;5.78;;
85559;SDS011;76003;49.038;16.594;2024-02-26T00:34:37;14.13;;;7.63;;
85559;SDS011;76003;49.038;16.594;2024-02-26T00:37:17;14.10;;;6.60;;
85559;SDS011;76003;49.038;16.594;2024-02-26T00:39:44;12.07;;;6.28;;
85559;SDS011;76003;49.038;16.594;2024-02-26T00:42:32;12.73;;;6.72;;
85559;SDS011;76003;49.038;16.594;2024-02-26T00:49:23;13.13;;;5.78;;
85559;SDS011;76003;49.038;16.594;2024-02-26T00:56:14;14.07;;;8.70;;
85559;SDS011;76003;49.038;16.594;2024-02-26T00:59:39;16.73;;;9.07;;
85559;SDS011;76003;49.038;16.594;2024-02-26T01:03:05;20.38;;;9.93;;
85559;SDS011;76003;49.038;16.594;2024-02-26T01:08:56;17.08;;;9.38;;
85559;SDS011;76003;49.038;16.594;2024-02-26T01:11:42;25.83;;;10.52;;
85559;SDS011;76003;49.038;16.594;2024-02-26T01:14:09;15.02;;;8.48;;
85559;SDS011;76003;49.038;16.594;2024-02-26T01:16:56;21.77;;;10.15;;
85559;SDS011;76003;49.038;16.594;2024-02-26T01:19:22;19.33;;;8.82;;
85559;SDS011;76003;49.038;16.594;2024-02-26T01:22:24;17.88;;;9.45;;
85559;SDS011;76003;49.038;16.594;2024-02-26T01:25:05;20.92;;;9.63;;
85559;SDS011;76003;49.038;16.594;2024-02-26T01:30:11;23.98;;;11.95;;
85559;SDS011;76003;49.038;16.594;2024-02-26T01:33:53;18.38;;;10.60;;
85559;SDS011;76003;49.038;16.594;2024-02-26T01:37:19;24.00;;;9.05;;
85559;SDS011;76003;49.038;16.594;2024-02-26T01:43:39;25.35;;;10.35;;
85559;SDS011;76003;49.038;16.594;2024-02-26T01:46:05;25.67;;;12.02;;
85559;SDS011;76003;49.038;16.594;2024-02-26T01:48:54;20.80;;;10.95;;
85559;SDS011;76003;49.038;16.594;2024-02-26T01:51:20;20.77;;;10.93;;
85559;SDS011;76003;49.038;16.594;2024-02-26T01:54:06;21.08;;;10.30;;
85559;SDS011;76003;49.038;16.594;2024-02-26T01:56:33;27.05;;;13.45;;
85559;SDS011;76003;49.038;16.594;2024-02-26T01:59:37;19.85;;;9.65;;
85559;SDS011;76003;49.038;16.594;2024-02-26T02:04:54;16.38;;;10.35;;
85559;SDS011;76003;49.038;16.594;2024-02-26T02:08:20;18.55;;;9.80;;
85559;SDS011;76003;49.038;16.594;2024-02-26T02:11:47;26.88;;;11.65;;
85559;SDS011;76003;49.038;16.594;2024-02-26T02:15:14;21.58;;;10.48;;
85559;SDS011;76003;49.038;16.594;2024-02-26T02:21:19;28.42;;;13.43;;
85559;SDS011;76003;49.038;16.594;2024-02-26T02:24:45;34.25;;;15.13;;
85559;SDS011;76003;49.038;16.594;2024-02-26T02:27:12;20.85;;;12.23;;
85559;SDS011;76003;49.038;16.594;2024-02-26T02:29:58;29.90;;;13.88;;
85559;SDS011;76003;49.038;16.594;2024-02-26T02:32:24;27.38;;;13.60;;
85559;SDS011;76003;49.038;16.594;2024-02-26T02:35:11;21.00;;;10.68;;
85559;SDS011;76003;49.038;16.594;2024-02-26T02:37:37;26.60;;;13.50;;
85559;SDS011;76003;49.038;16.594;2024-02-26T02:40:24;28.25;;;13.38;;
85559;SDS011;76003;49.038;16.594;2024-02-26T02:43:04;20.05;;;10.18;;
85559;SDS011;76003;49.038;16.594;2024-02-26T02:45:30;28.50;;;13.77;;
85559;SDS011;76003;49.038;16.594;2024-02-26T02:49:12;29.38;;;13.50;;
85559;SDS011;76003;49.038;16.594;2024-02-26T02:54:38;24.83;;;12.27;;
85559;SDS011;76003;49.038;16.594;2024-02-26T02:57:20;46.45;;;19.65;;
85559;SDS011;76003;49.038;16.594;2024-02-26T03:00:01;34.13;;;15.50;;
85559;SDS011;76003;49.038;16.594;2024-02-26T03:02:44;50.83;;;18.55;;
85559;SDS011;76003;49.038;16.594;2024-02-26T03:05:25;44.92;;;17.65;;
85559;SDS011;76003;49.038;16.594;2024-02-26T03:07:51;32.25;;;14.32;;
85559;SDS011;76003;49.038;16.594;2024-02-26T03:10:38;42.28;;;19.40;;
85559;SDS011;76003;49.038;16.594;2024-02-26T03:13:04;53.45;;;19.30;;
85559;SDS011;76003;49.038;16.594;2024-02-26T03:15:50;35.25;;;17.48;;
85559;SDS011;76003;49.038;16.594;2024-02-26T03:18:16;34.17;;;15.98;;
85559;SDS011;76003;49.038;16.594;2024-02-26T03:21:03;31.80;;;14.43;;
85559;SDS011;76003;49.038;16.594;2024-02-26T03:23:44;35.50;;;15.07;;
85559;SDS011;76003;49.038;16.594;2024-02-26T03:26:24;28.27;;;12.43;;
85559;SDS011;76003;49.038;16.594;2024-02-26T03:29:05;27.95;;;13.63;;
85559;SDS011;76003;49.038;16.594;2024-02-26T03:34:27;29.27;;;14.27;;
85559;SDS011;76003;49.038;16.594;2024-02-26T03:37:08;24.95;;;12.80;;
85559;SDS011;76003;49.038;16.594;2024-02-26T03:39:51;29.92;;;16.85;;
85559;SDS011;76003;49.038;16.594;2024-02-26T03:42:31;31.30;;;15.10;;
85559;SDS011;76003;49.038;16.594;2024-02-26T03:44:57;26.55;;;13.50;;
85559;SDS011;76003;49.038;16.594;2024-02-26T03:47:43;29.90;;;14.13;;
85559;SDS011;76003;49.038;16.594;2024-02-26T03:50:09;41.38;;;18.70;;
85559;SDS011;76003;49.038;16.594;2024-02-26T03:52:56;39.08;;;18.00;;
85559;SDS011;76003;49.038;16.594;2024-02-26T03:55:37;33.38;;;18.00;;
85559;SDS011;76003;49.038;16.594;2024-02-26T03:58:18;28.15;;;14.60;;
85559;SDS011;76003;49.038;16.594;2024-02-26T04:00:44;36.58;;;18.73;;
85559;SDS011;76003;49.038;16.594;2024-02-26T04:03:33;38.78;;;18.00;;
85559;SDS011;76003;49.038;16.594;2024-02-26T04:06:13;43.50;;;19.00;;
85559;SDS011;76003;49.038;16.594;2024-02-26T04:11:34;35.47;;;17.05;;
85559;SDS011;76003;49.038;16.594;2024-02-26T04:14:00;32.20;;;18.30;;
85559;SDS011;76003;49.038;16.594;2024-02-26T04:17:42;38.00;;;17.45;;
85559;SDS011;76003;49.038;16.594;2024-02-26T04:20:12;29.40;;;16.27;;
85559;SDS011;76003;49.038;16.594;2024-02-26T04:23:16;25.35;;;14.55;;
85559;SDS011;76003;49.038;16.594;2024-02-26T04:26:41;36.28;;;16.90;;
85559;SDS011;76003;49.038;16.594;2024-02-26T04:30:07;57.58;;;23.92;;
85559;SDS011;76003;49.038;16.594;2024-02-26T04:32:33;67.40;;;27.20;;
85559;SDS011;76003;49.038;16.594;2024-02-26T04:35:20;44.83;;;20.08;;
85559;SDS011;76003;49.038;16.594;2024-02-26T04:37:46;46.35;;;21.35;;
85559;SDS011;76003;49.038;16.594;2024-02-26T04:40:32;50.17;;;20.88;;
85559;SDS011;76003;49.038;16.594;2024-02-26T04:47:23;45.13;;;19.58;;
85559;SDS011;76003;49.038;16.594;2024-02-26T04:54:14;39.60;;;19.23;;
85559;SDS011;76003;49.038;16.594;2024-02-26T04:56:39;33.05;;;17.02;;
85559;SDS011;76003;49.038;16.594;2024-02-26T04:59:26;36.75;;;17.58;;
85559;SDS011;76003;49.038;16.594;2024-02-26T05:02:06;39.85;;;20.35;;
85559;SDS011;76003;49.038;16.594;2024-02-26T05:04:32;37.33;;;17.90;;
85559;SDS011;76003;49.038;16.594;2024-02-26T05:07:13;32.63;;;17.40;;
85559;SDS011;76003;49.038;16.594;2024-02-26T05:09:40;38.28;;;15.43;;
85559;SDS011;76003;49.038;16.594;2024-02-26T05:12:27;29.27;;;16.00;;
85559;SDS011;76003;49.038;16.594;2024-02-26T05:14:53;31.75;;;15.88;;
85559;SDS011;76003;49.038;16.594;2024-02-26T05:17:56;26.17;;;13.35;;
85559;SDS011;76003;49.038;16.594;2024-02-26T05:20:25;27.15;;;15.35;;
85559;SDS011;76003;49.038;16.594;2024-02-26T05:22:51;28.13;;;16.23;;
85559;SDS011;76003;49.038;16.594;2024-02-26T05:25:20;25.77;;;13.95;;
85559;SDS011;76003;49.038;16.594;2024-02-26T05:27:45;28.75;;;15.60;;
85559;SDS011;76003;49.038;16.594;2024-02-26T05:30:12;31.25;;;18.17;;
85559;SDS011;76003;49.038;16.594;2024-02-26T05:32:38;27.27;;;15.68;;
85559;SDS011;76003;49.038;16.594;2024-02-26T05:35:25;31.02;;;16.45;;
85559;SDS011;76003;49.038;16.594;2024-02-26T05:38:54;30.48;;;16.58;;
85559;SDS011;76003;49.038;16.594;2024-02-26T05:42:20;35.47;;;19.80;;
85559;SDS011;76003;49.038;16.594;2024-02-26T05:44:46;31.90;;;16.98;;
85559;SDS011;76003;49.038;16.594;2024-02-26T05:47:33;27.20;;;15.43;;
85559;SDS011;76003;49.038;16.594;2024-02-26T05:50:00;25.70;;;15.55;;
85559;SDS011;76003;49.038;16.594;2024-02-26T05:52:46;27.35;;;14.60;;
85559;SDS011;76003;49.038;16.594;2024-02-26T05:55:27;27.83;;;17.17;;
85559;SDS011;76003;49.038;16.594;2024-02-26T05:58:08;22.73;;;13.40;;
85559;SDS011;76003;49.038;16.594;2024-02-26T06:00:49;27.90;;;14.32;;
85559;SDS011;76003;49.038;16.594;2024-02-26T06:03:29;28.05;;;14.20;;
85559;SDS011;76003;49.038;16.594;2024-02-26T06:06:11;29.35;;;15.10;;
85559;SDS011;76003;49.038;16.594;2024-02-26T06:08:52;28.30;;;14.18;;
85559;SDS011;76003;49.038;16.594;2024-02-26T06:11:32;28.35;;;15.75;;
85559;SDS011;76003;49.038;16.594;2024-02-26T06:13:58;27.52;;;13.90;;
85559;SDS011;76003;49.038;16.594;2024-02-26T06:16:45;24.38;;;12.95;;
85559;SDS011;76003;49.038;16.594;2024-02-26T06:19:26;23.35;;;13.05;;
85559;SDS011;76003;49.038;16.594;2024-02-26T06:21:52;28.00;;;13.95;;
85559;SDS011;76003;49.038;16.594;2024-02-26T06:24:38;24.90;;;13.50;;
85559;SDS011;76003;49.038;16.594;2024-02-26T06:27:04;24.17;;;14.32;;
85559;SDS011;76003;49.038;16.594;2024-02-26T06:29:51;23.73;;;12.38;;
85559;SDS011;76003;49.038;16.594;2024-02-26T06:32:31;16.90;;;10.35;;
85559;SDS011;76003;49.038;16.594;2024-02-26T06:35:12;14.93;;;10.07;;
85559;SDS011;76003;49.038;16.594;2024-02-26T06:37:52;15.50;;;9.48;;
85559;SDS011;76003;49.038;16.594;2024-02-26T06:40:33;18.50;;;9.27;;
85559;SDS011;76003;49.038;16.594;2024-02-26T06:45:54;16.20;;;10.57;;
85559;SDS011;76003;49.038;16.594;2024-02-26T06:48:22;13.48;;;9.52;;
85559;SDS011;76003;49.038;16.594;2024-02-26T06:51:09;14.85;;;8.80;;
85559;SDS011;76003;49.038;16.594;2024-02-26T06:53:50;13.95;;;8.52;;
85559;SDS011;76003;49.038;16.594;2024-02-26T06:58:56;13.80;;;9.57;;
85559;SDS011;76003;49.038;16.594;2024-02-26T07:01:53;11.48;;;7.68;;
85559;SDS011;76003;49.038;16.594;2024-02-26T07:04:20;11.38;;;8.38;;
85559;SDS011;76003;49.038;16.594;2024-02-26T07:07:07;14.07;;;9.32;;
85559;SDS011;76003;49.038;16.594;2024-02-26T07:09:48;14.27;;;8.57;;
85559;SDS011;76003;49.038;16.594;2024-02-26T07:12:31;12.45;;;8.52;;
85559;SDS011;76003;49.038;16.594;2024-02-26T07:15:12;11.45;;;7.40;;
85559;SDS011;76003;49.038;16.594;2024-02-26T07:17:53;14.00;;;9.20;;
85559;SDS011;76003;49.038;16.594;2024-02-26T07:20:33;10.93;;;7.63;;
85559;SDS011;76003;49.038;16.594;2024-02-26T07:23:05;12.48;;;8.43;;
85559;SDS011;76003;49.038;16.594;2024-02-26T07:25:52;11.63;;;7.30;;
85559;SDS011;76003;49.038;16.594;2024-02-26T07:28:33;11.30;;;7.80;;
85559;SDS011;76003;49.038;16.594;2024-02-26T07:31:14;12.23;;;8.05;;
85559;SDS011;76003;49.038;16.594;2024-02-26T07:33:40;13.48;;;8.00;;
85559;SDS011;76003;49.038;16.594;2024-02-26T07:36:26;11.63;;;6.93;;
85559;SDS011;76003;49.038;16.594;2024-02-26T07:39:02;12.18;;;8.23;;
85559;SDS011;76003;49.038;16.594;2024-02-26T07:41:49;9.10;;;6.90;;
85559;SDS011;76003;49.038;16.594;2024-02-26T07:44:32;10.57;;;7.13;;
85559;SDS011;76003;49.038;16.594;2024-02-26T07:47:13;10.68;;;6.45;;
85559;SDS011;76003;49.038;16.594;2024-02-26T07:49:53;8.90;;;6.72;;
85559;SDS011;76003;49.038;16.594;2024-02-26T07:52:34;9.23;;;6.18;;
85559;SDS011;76003;49.038;16.594;2024-02-26T07:55:14;10.18;;;6.72;;
85559;SDS011;76003;49.038;16.594;2024-02-26T07:57:55;9.30;;;6.93;;
85559;SDS011;76003;49.038;16.594;2024-02-26T08:00:21;10.60;;;6.78;;
85559;SDS011;76003;49.038;16.594;2024-02-26T08:03:07;10.30;;;6.28;;
85559;SDS011;76003;49.038;16.594;2024-02-26T08:05:48;10.77;;;6.32;;
85559;SDS011;76003;49.038;16.594;2024-02-26T08:11:08;9.30;;;5.25;;
85559;SDS011;76003;49.038;16.594;2024-02-26T08:13:48;9.57;;;7.07;;
85559;SDS011;76003;49.038;16.594;2024-02-26T08:16:15;9.77;;;6.22;;
85559;SDS011;76003;49.038;16.594;2024-02-26T08:19:01;9.05;;;5.95;;
85559;SDS011;76003;49.038;16.594;2024-02-26T08:21:41;9.40;;;6.10;;
85559;SDS011;76003;49.038;16.594;2024-02-26T08:24:22;9.77;;;6.22;;
85559;SDS011;76003;49.038;16.594;2024-02-26T08:27:03;10.40;;;6.15;;
85559;SDS011;76003;49.038;16.594;2024-02-26T08:29:29;7.95;;;6.05;;
85559;SDS011;76003;49.038;16.594;2024-02-26T08:33:11;9.05;;;5.13;;
85559;SDS011;76003;49.038;16.594;2024-02-26T08:35:39;7.30;;;4.72;;
85559;SDS011;76003;49.038;16.594;2024-02-26T08:38:41;8.50;;;5.90;;
85559;SDS011;76003;49.038;16.594;2024-02-26T08:42:07;6.90;;;4.65;;
85559;SDS011;76003;49.038;16.594;2024-02-26T08:44:32;7.65;;;4.93;;
85559;SDS011;76003;49.038;16.594;2024-02-26T08:47:19;8.70;;;5.32;;
85559;SDS011;76003;49.038;16.594;2024-02-26T08:50:44;6.90;;;4.80;;
85559;SDS011;76003;49.038;16.594;2024-02-26T08:53:10;6.30;;;4.80;;
85559;SDS011;76003;49.038;16.594;2024-02-26T08:55:57;6.18;;;4.22;;
85559;SDS011;76003;49.038;16.594;2024-02-26T08:59:22;6.85;;;4.78;;
85559;SDS011;76003;49.038;16.594;2024-02-26T09:02:48;7.03;;;4.72;;
85559;SDS011;76003;49.038;16.594;2024-02-26T09:05:15;6.75;;;4.80;;
85559;SDS011;76003;49.038;16.594;2024-02-26T09:08:57;7.45;;;4.78;;
85559;SDS011;76003;49.038;16.594;2024-02-26T09:11:23;8.32;;;4.38;;
85559;SDS011;76003;49.038;16.594;2024-02-26T09:15:06;6.30;;;4.18;;
85559;SDS011;76003;49.038;16.594;2024-02-26T09:17:47;7.43;;;4.95;;
85559;SDS011;76003;49.038;16.594;2024-02-26T09:20:15;5.68;;;4.05;;
85559;SDS011;76003;49.038;16.594;2024-02-26T09:23:06;5.50;;;4.07;;
85559;SDS011;76003;49.038;16.594;2024-02-26T09:25:46;5.68;;;3.60;;
85559;SDS011;76003;49.038;16.594;2024-02-26T09:28:12;6.45;;;4.43;;
85559;SDS011;76003;49.038;16.594;2024-02-26T09:30:58;13.40;;;4.85;;
85559;SDS011;76003;49.038;16.594;2024-02-26T09:33:24;6.25;;;4.75;;
85559;SDS011;76003;49.038;16.594;2024-02-26T09:37:07;6.22;;;4.82;;
85559;SDS011;76003;49.038;16.594;2024-02-26T09:39:47;5.38;;;3.42;;
85559;SDS011;76003;49.038;16.594;2024-02-26T09:42:28;6.72;;;4.10;;
85559;SDS011;76003;49.038;16.594;2024-02-26T09:45:19;5.60;;;3.55;;
85559;SDS011;76003;49.038;16.594;2024-02-26T09:47:48;5.20;;;4.13;;
85559;SDS011;76003;49.038;16.594;2024-02-26T09:50:38;5.97;;;3.63;;
85559;SDS011;76003;49.038;16.594;2024-02-26T09:53:21;5.22;;;4.38;;
85559;SDS011;76003;49.038;16.594;2024-02-26T09:55:47;4.85;;;4.05;;
85559;SDS011;76003;49.038;16.594;2024-02-26T09:58:34;5.22;;;4.00;;
85559;SDS011;76003;49.038;16.594;2024-02-26T10:01:18;8.05;;;4.32;;
85559;SDS011;76003;49.038;16.594;2024-02-26T10:04:00;4.65;;;3.80;;
85559;SDS011;76003;49.038;16.594;2024-02-26T10:06:41;5.93;;;4.57;;
85559;SDS011;76003;49.038;16.594;2024-02-26T10:09:24;6.25;;;3.35;;
85559;SDS011;76003;49.038;16.594;2024-02-26T10:11:50;5.40;;;3.75;;
85559;SDS011;76003;49.038;16.594;2024-02-26T10:14:37;5.20;;;4.05;;
85559;SDS011;76003;49.038;16.594;2024-02-26T10:18:05;5.28;;;4.53;;
85559;SDS011;76003;49.038;16.594;2024-02-26T10:21:31;7.72;;;3.67;;
85559;SDS011;76003;49.038;16.594;2024-02-26T10:23:57;4.93;;;3.92;;
85559;SDS011;76003;49.038;16.594;2024-02-26T10:26:46;4.15;;;3.67;;
85559;SDS011;76003;49.038;16.594;2024-02-26T10:29:27;6.05;;;4.40;;
85559;SDS011;76003;49.038;16.594;2024-02-26T10:31:53;4.78;;;4.28;;
85559;SDS011;76003;49.038;16.594;2024-02-26T10:34:39;4.97;;;3.15;;
85559;SDS011;76003;49.038;16.594;2024-02-26T10:37:22;5.22;;;3.97;;
85559;SDS011;76003;49.038;16.594;2024-02-26T10:40:03;3.30;;;2.53;;
85559;SDS011;76003;49.038;16.594;2024-02-26T10:42:48;4.55;;;3.15;;
85559;SDS011;76003;49.038;16.594;2024-02-26T10:45:28;6.60;;;3.42;;
85559;SDS011;76003;49.038;16.594;2024-02-26T10:47:54;5.53;;;4.22;;
85559;SDS011;76003;49.038;16.594;2024-02-26T10:50:40;5.25;;;3.40;;
85559;SDS011;76003;49.038;16.594;2024-02-26T10:53:22;4.28;;;2.60;;
85559;SDS011;76003;49.038;16.594;2024-02-26T10:56:04;4.32;;;3.05;;
85559;SDS011;76003;49.038;16.594;2024-02-26T10:58:41;2.63;;;2.30;;
85559;SDS011;76003;49.038;16.594;2024-02-26T11:01:28;4.70;;;3.83;;
85559;SDS011;76003;49.038;16.594;2024-02-26T11:03:56;5.05;;;3.03;;
85559;SDS011;76003;49.038;16.594;2024-02-26T11:06:57;4.38;;;3.58;;
85559;SDS011;76003;49.038;16.594;2024-02-26T11:09:38;3.45;;;3.10;;
85559;SDS011;76003;49.038;16.594;2024-02-26T11:15:05;3.72;;;2.60;;
85559;SDS011;76003;49.038;16.594;2024-02-26T11:17:46;4.53;;;3.42;;
85559;SDS011;76003;49.038;16.594;2024-02-26T11:20:28;4.60;;;2.83;;
85559;SDS011;76003;49.038;16.594;2024-02-26T11:22:57;4.15;;;2.88;;
85559;SDS011;76003;49.038;16.594;2024-02-26T11:25:44;3.50;;;2.33;;
85559;SDS011;76003;49.038;16.594;2024-02-26T11:28:25;3.80;;;2.05;;
85559;SDS011;76003;49.038;16.594;2024-02-26T11:31:08;3.28;;;2.20;;
85559;SDS011;76003;49.038;16.594;2024-02-26T11:33:35;2.85;;;2.10;;
85559;SDS011;76003;49.038;16.594;2024-02-26T11:36:23;5.70;;;3.33;;
85559;SDS011;76003;49.038;16.594;2024-02-26T11:38:50;4.57;;;2.83;;
85559;SDS011;76003;49.038;16.594;2024-02-26T11:42:33;7.07;;;2.38;;
85559;SDS011;76003;49.038;16.594;2024-02-26T11:44:59;3.25;;;2.70;;
85559;SDS011;76003;49.038;16.594;2024-02-26T11:47:26;5.25;;;2.20;;
85559;SDS011;76003;49.038;16.594;2024-02-26T11:50:35;3.03;;;2.42;;
85559;SDS011;76003;49.038;16.594;2024-02-26T11:53:19;3.13;;;2.40;;
85559;SDS011;76003;49.038;16.594;2024-02-26T11:58:39;3.13;;;2.53;;
85559;SDS011;76003;49.038;16.594;2024-02-26T12:01:39;3.53;;;2.13;;
85559;SDS011;76003;49.038;16.594;2024-02-26T12:04:25;3.40;;;2.45;;
85559;SDS011;76003;49.038;16.594;2024-02-26T12:07:08;3.15;;;2.28;;
85559;SDS011;76003;49.038;16.594;2024-02-26T12:09:38;3.50;;;2.35;;
85559;SDS011;76003;49.038;16.594;2024-02-26T12:12:26;3.25;;;2.25;;
85559;SDS011;76003;49.038;16.594;2024-02-26T12:14:56;5.85;;;2.22;;
85559;SDS011;76003;49.038;16.594;2024-02-26T12:17:42;2.95;;;2.65;;
85559;SDS011;76003;49.038;16.594;2024-02-26T12:20:14;3.83;;;2.15;;
85559;SDS011;76003;49.038;16.594;2024-02-26T12:22:56;3.67;;;2.88;;
85559;SDS011;76003;49.038;16.594;2024-02-26T12:25:37;4.97;;;2.60;;
85559;SDS011;76003;49.038;16.594;2024-02-26T12:28:18;3.70;;;2.22;;
85559;SDS011;76003;49.038;16.594;2024-02-26T12:30:58;4.15;;;3.03;;
85559;SDS011;76003;49.038;16.594;2024-02-26T12:33:25;5.05;;;2.33;;
85559;SDS011;76003;49.038;16.594;2024-02-26T12:37:08;3.08;;;1.80;;
85559;SDS011;76003;49.038;16.594;2024-02-26T12:39:50;3.15;;;2.22;;
85559;SDS011;76003;49.038;16.594;2024-02-26T12:42:16;2.38;;;1.77;;
85559;SDS011;76003;49.038;16.594;2024-02-26T12:45:19;3.40;;;2.30;;
85559;SDS011;76003;49.038;16.594;2024-02-26T12:48:01;2.10;;;1.48;;
85559;SDS011;76003;49.038;16.594;2024-02-26T12:50:27;4.35;;;2.10;;
85559;SDS011;76003;49.038;16.594;2024-02-26T12:53:13;4.82;;;2.80;;
85559;SDS011;76003;49.038;16.594;2024-02-26T12:55:39;5.38;;;2.53;;
85559;SDS011;76003;49.038;16.594;2024-02-26T12:58:27;3.10;;;2.00;;
85559;SDS011;76003;49.038;16.594;2024-02-26T13:01:13;3.38;;;2.00;;
85559;SDS011;76003;49.038;16.594;2024-02-26T13:03:55;4.03;;;2.50;;
85559;SDS011;76003;49.038;16.594;2024-02-26T13:06:36;2.45;;;1.98;;
85559;SDS011;76003;49.038;16.594;2024-02-26T13:09:02;4.75;;;2.25;;
85559;SDS011;76003;49.038;16.594;2024-02-26T13:12:06;3.33;;;2.28;;
85559;SDS011;76003;49.038;16.594;2024-02-26T13:15:32;3.92;;;1.92;;
85559;SDS011;76003;49.038;16.594;2024-02-26T13:18:13;4.53;;;2.20;;
85559;SDS011;76003;49.038;16.594;2024-02-26T13:20:41;3.90;;;1.85;;
85559;SDS011;76003;49.038;16.594;2024-02-26T13:24:23;4.03;;;2.30;;
85559;SDS011;76003;49.038;16.594;2024-02-26T13:26:54;5.43;;;2.20;;
85559;SDS011;76003;49.038;16.594;2024-02-26T13:29:41;3.60;;;2.30;;
85559;SDS011;76003;49.038;16.594;2024-02-26T13:32:06;3.88;;;2.08;;
85559;SDS011;76003;49.038;16.594;2024-02-26T13:35:04;2.60;;;2.10;;
85559;SDS011;76003;49.038;16.594;2024-02-26T13:37:46;4.07;;;2.42;;
85559;SDS011;76003;49.038;16.594;2024-02-26T13:40:12;3.78;;;2.60;;
85559;SDS011;76003;49.038;16.594;2024-02-26T13:42:53;2.85;;;2.20;;
85559;SDS011;76003;49.038;16.594;2024-02-26T13:45:19;5.78;;;2.47;;
85559;SDS011;76003;49.038;16.594;2024-02-26T13:48:06;2.83;;;2.00;;
85559;SDS011;76003;49.038;16.594;2024-02-26T13:50:35;4.93;;;2.33;;
85559;SDS011;76003;49.038;16.594;2024-02-26T13:53:00;3.85;;;2.75;;
85559;SDS011;76003;49.038;16.594;2024-02-26T13:55:26;2.67;;;1.95;;
85559;SDS011;76003;49.038;16.594;2024-02-26T13:59:10;2.83;;;1.98;;
85559;SDS011;76003;49.038;16.594;2024-02-26T14:01:35;3.13;;;2.08;;
85559;SDS011;76003;49.038;16.594;2024-02-26T14:04:01;3.45;;;2.25;;
85559;SDS011;76003;49.038;16.594;2024-02-26T14:09:14;2.78;;;2.17;;
85559;SDS011;76003;49.038;16.594;2024-02-26T14:12:05;2.38;;;2.00;;
85559;SDS011;76003;49.038;16.594;2024-02-26T14:14:30;5.20;;;2.50;;
85559;SDS011;76003;49.038;16.594;2024-02-26T14:16:58;10.25;;;4.70;;
85559;SDS011;76003;49.038;16.594;2024-02-26T14:19:24;6.75;;;4.22;;
85559;SDS011;76003;49.038;16.594;2024-02-26T14:21:50;3.92;;;2.28;;
85559;SDS011;76003;49.038;16.594;2024-02-26T14:24:36;4.20;;;2.40;;
85559;SDS011;76003;49.038;16.594;2024-02-26T14:27:02;5.35;;;3.13;;
85559;SDS011;76003;49.038;16.594;2024-02-26T14:29:27;7.07;;;2.92;;
85559;SDS011;76003;49.038;16.594;2024-02-26T14:32:53;3.90;;;2.20;;
85559;SDS011;76003;49.038;16.594;2024-02-26T14:35:18;3.97;;;2.53;;
85559;SDS011;76003;49.038;16.594;2024-02-26T14:37:59;3.75;;;1.95;;
85559;SDS011;76003;49.038;16.594;2024-02-26T14:40:27;3.60;;;2.30;;
85559;SDS011;76003;49.038;16.594;2024-02-26T14:43:13;2.97;;;2.42;;
85559;SDS011;76003;49.038;16.594;2024-02-26T14:45:39;3.72;;;2.35;;
85559;SDS011;76003;49.038;16.594;2024-02-26T14:48:26;4.80;;;2.35;;
85559;SDS011;76003;49.038;16.594;2024-02-26T14:50:52;4.32;;;2.38;;
85559;SDS011;76003;49.038;16.594;2024-02-26T14:54:34;4.20;;;2.45;;
85559;SDS011;76003;49.038;16.594;2024-02-26T14:57:04;2.08;;;1.30;;
85559;SDS011;76003;49.038;16.594;2024-02-26T15:00:08;2.00;;;1.63;;
85559;SDS011;76003;49.038;16.594;2024-02-26T15:02:35;2.60;;;1.70;;
85559;SDS011;76003;49.038;16.594;2024-02-26T15:06:17;3.17;;;1.92;;
85559;SDS011;76003;49.038;16.594;2024-02-26T15:09:43;3.05;;;1.90;;
85559;SDS011;76003;49.038;16.594;2024-02-26T15:12:08;2.90;;;1.85;;
85559;SDS011;76003;49.038;16.594;2024-02-26T15:15:35;2.65;;;1.90;;
85559;SDS011;76003;49.038;16.594;2024-02-26T15:18:01;3.20;;;1.88;;
85559;SDS011;76003;49.038;16.594;2024-02-26T15:20:27;3.53;;;2.15;;
85559;SDS011;76003;49.038;16.594;2024-02-26T15:23:13;6.88;;;3.10;;
85559;SDS011;76003;49.038;16.594;2024-02-26T15:25:39;3.15;;;2.22;;
85559;SDS011;76003;49.038;16.594;2024-02-26T15:28:27;4.03;;;2.78;;
85559;SDS011;76003;49.038;16.594;2024-02-26T15:31:49;1.67;;;1.35;;
85559;SDS011;76003;49.038;16.594;2024-02-26T15:34:15;3.63;;;1.60;;
85559;SDS011;76003;49.038;16.594;2024-02-26T15:37:02;2.25;;;1.85;;
85559;SDS011;76003;49.038;16.594;2024-02-26T15:39:28;2.42;;;1.73;;
85559;SDS011;76003;49.038;16.594;2024-02-26T15:43:10;2.38;;;2.13;;
85559;SDS011;76003;49.038;16.594;2024-02-26T15:45:51;2.15;;;1.58;;
85559;SDS011;76003;49.038;16.594;2024-02-26T15:48:32;2.08;;;1.60;;
85559;SDS011;76003;49.038;16.594;2024-02-26T15:51:19;2.78;;;1.48;;
85559;SDS011;76003;49.038;16.594;2024-02-26T15:54:01;2.95;;;1.92;;
85559;SDS011;76003;49.038;16.594;2024-02-26T15:56:28;3.15;;;1.10;;
85559;SDS011;76003;49.038;16.594;2024-02-26T15:59:30;2.10;;;1.65;;
85559;SDS011;76003;49.038;16.594;2024-02-26T16:01:56;3.10;;;1.92;;
85559;SDS011;76003;49.038;16.594;2024-02-26T16:04:43;2.65;;;1.92;;
85559;SDS011;76003;49.038;16.594;2024-02-26T16:07:34;2.80;;;1.80;;
85559;SDS011;76003;49.038;16.594;2024-02-26T16:10:07;2.50;;;1.90;;
85559;SDS011;76003;49.038;16.594;2024-02-26T16:12:53;3.08;;;2.10;;
85559;SDS011;76003;49.038;16.594;2024-02-26T16:15:22;2.42;;;1.98;;
85559;SDS011;76003;49.038;16.594;2024-02-26T16:18:03;2.22;;;1.88;;
85559;SDS011;76003;49.038;16.594;2024-02-26T16:20:29;3.10;;;1.70;;
85559;SDS011;76003;49.038;16.594;2024-02-26T16:22:55;2.47;;;1.40;;
85559;SDS011;76003;49.038;16.594;2024-02-26T16:25:21;2.15;;;1.77;;
85559;SDS011;76003;49.038;16.594;2024-02-26T16:27:46;3.40;;;1.45;;
85559;SDS011;76003;49.038;16.594;2024-02-26T16:30:12;2.22;;;1.63;;
85559;SDS011;76003;49.038;16.594;2024-02-26T16:32:39;2.42;;;1.67;;
85559;SDS011;76003;49.038;16.594;2024-02-26T16:36:21;2.22;;;1.65;;
85559;SDS011;76003;49.038;16.594;2024-02-26T16:38:47;2.42;;;1.75;;
85559;SDS011;76003;49.038;16.594;2024-02-26T16:41:33;1.95;;;1.38;;
85559;SDS011;76003;49.038;16.594;2024-02-26T16:44:14;4.90;;;1.85;;
85559;SDS011;76003;49.038;16.594;2024-02-26T16:46:40;3.35;;;2.05;;
85559;SDS011;76003;49.038;16.594;2024-02-26T16:49:26;3.35;;;1.90;;
85559;SDS011;76003;49.038;16.594;2024-02-26T16:51:52;7.97;;;2.50;;
85559;SDS011;76003;49.038;16.594;2024-02-26T16:57:20;2.67;;;1.48;;
85559;SDS011;76003;49.038;16.594;2024-02-26T17:00:02;1.50;;;1.40;;